Terminal Aerodrome Forecast
Issued by NWS

Home | Current Version | Previous Version | Text Only | Print | Product List | Glossary On
Versions: 1 2 3 4 5 6 7 8 9 10 11 12 13 14 15 16 17 18 19 20 21 22 23 24 25
000
FTUS44 KLZK 262300
TAFLIT
TAF
KLIT 262339Z 2700/2724 19006KT P6SM SCT120 BKN250
      TEMPO 2710/2714 5SM BR
     FM271400 22007KT P6SM SCT035 BKN250
      TEMPO 2714/2718 BKN025=

USA.gov is the U.S. government's official web portal to all federal, state and local government web resources and services.